createdAt,value
2019-05-20T00:00:15.285Z,3.97
2019-05-20T00:04:19.561Z,6.43
2019-05-20T00:08:23.858Z,4.27
2019-05-20T00:12:28.040Z,4.10
2019-05-20T00:16:32.331Z,5.77
2019-05-20T00:20:36.597Z,4.77
2019-05-20T00:24:40.854Z,4.27
2019-05-20T00:28:45.103Z,3.37
2019-05-20T00:32:49.371Z,3.70
2019-05-20T00:36:53.927Z,3.73
2019-05-20T00:40:58.582Z,5.23
2019-05-20T00:45:02.923Z,4.67
2019-05-20T00:49:07.143Z,4.10
2019-05-20T00:53:11.604Z,5.10
2019-05-20T00:57:16.059Z,4.23
2019-05-20T01:01:20.327Z,4.03
2019-05-20T01:05:24.733Z,4.03
2019-05-20T01:09:29.010Z,4.33
2019-05-20T01:13:33.310Z,6.30
2019-05-20T01:17:37.510Z,4.60
2019-05-20T01:21:41.758Z,5.00
2019-05-20T01:25:46.004Z,4.40
2019-05-20T01:29:50.189Z,3.50
2019-05-20T01:33:54.430Z,6.33
2019-05-20T01:37:58.639Z,4.53
2019-05-20T01:42:02.897Z,4.60
2019-05-20T01:46:07.443Z,3.87
2019-05-20T01:50:11.650Z,4.83
2019-05-20T01:54:15.872Z,6.37
2019-05-20T01:58:20.105Z,5.70
2019-05-20T02:02:24.287Z,5.97
2019-05-20T02:06:28.861Z,5.23
2019-05-20T02:10:33.514Z,5.13
2019-05-20T02:14:43.847Z,5.53
2019-05-20T02:18:48.455Z,5.60
2019-05-20T02:22:54.929Z,5.13
2019-05-20T02:26:59.183Z,4.97
2019-05-20T02:31:03.433Z,5.17
2019-05-20T02:35:08.105Z,5.17
2019-05-20T02:39:12.502Z,7.20
2019-05-20T02:43:16.763Z,4.57
2019-05-20T02:47:21.054Z,6.37
2019-05-20T02:51:34.329Z,6.50
2019-05-20T02:55:38.551Z,6.07
2019-05-20T02:59:42.774Z,3.90
2019-05-20T03:03:47.020Z,8.83
2019-05-20T03:07:51.326Z,5.53
2019-05-20T03:11:55.532Z,6.00
2019-05-20T03:16:00.149Z,4.70
2019-05-20T03:20:04.723Z,4.37
2019-05-20T03:24:08.966Z,5.20
2019-05-20T03:28:13.687Z,6.17
2019-05-20T03:32:17.907Z,6.17
2019-05-20T03:36:22.158Z,4.90
2019-05-20T03:40:26.385Z,4.83
2019-05-20T03:44:31.022Z,5.33
2019-05-20T03:48:35.372Z,4.27
2019-05-20T03:52:39.704Z,4.67
2019-05-20T03:56:43.938Z,5.33
2019-05-20T04:00:48.951Z,5.57
2019-05-20T04:05:02.129Z,7.40
2019-05-20T04:08:59.192Z,8.53
2019-05-20T04:13:03.419Z,6.83
2019-05-20T04:17:07.644Z,7.93
2019-05-20T04:21:11.831Z,7.83
2019-05-20T04:25:16.256Z,7.97
2019-05-20T04:29:20.805Z,8.10
2019-05-20T04:33:25.064Z,6.87
2019-05-20T04:37:29.385Z,7.37
2019-05-20T04:41:35.792Z,6.83
2019-05-20T04:45:39.937Z,6.83
2019-05-20T04:49:44.159Z,7.77
2019-05-20T04:53:49.130Z,7.53
2019-05-20T04:57:53.331Z,6.50
2019-05-20T05:01:57.570Z,7.70
2019-05-20T05:06:01.846Z,5.80
2019-05-20T05:10:07.381Z,5.17
2019-05-20T05:14:11.602Z,5.50
2019-05-20T05:18:15.902Z,4.33
2019-05-20T05:22:20.417Z,4.17
2019-05-20T05:26:24.655Z,4.70
2019-05-20T05:30:29.041Z,4.17
2019-05-20T05:34:33.317Z,4.07
2019-05-20T05:38:37.545Z,3.60
2019-05-20T05:42:41.760Z,6.67
2019-05-20T05:46:46.005Z,4.40
2019-05-20T05:50:50.266Z,3.80
2019-05-20T05:54:54.514Z,4.77
2019-05-20T05:58:58.789Z,3.63
2019-05-20T06:03:03.104Z,3.93
2019-05-20T06:07:07.352Z,4.97
2019-05-20T06:11:11.628Z,3.13
2019-05-20T06:15:17.463Z,4.47
2019-05-20T06:19:21.719Z,3.97
2019-05-20T06:23:25.930Z,3.27
2019-05-20T06:27:30.521Z,4.83
2019-05-20T06:31:34.767Z,4.40
2019-05-20T06:35:39.013Z,4.57
2019-05-20T06:39:43.292Z,3.23
2019-05-20T06:43:47.531Z,2.70
2019-05-20T06:47:52.155Z,3.77
2019-05-20T06:51:56.343Z,3.67
2019-05-20T06:56:00.577Z,2.47
2019-05-20T07:00:06.286Z,1.97
2019-05-20T07:04:10.587Z,3.23
2019-05-20T07:08:14.861Z,2.70
2019-05-20T07:12:19.277Z,2.50
2019-05-20T07:16:23.484Z,3.10
2019-05-20T07:20:27.865Z,3.13
2019-05-20T07:24:32.123Z,2.37
2019-05-20T07:28:36.769Z,4.47
2019-05-20T07:32:41.252Z,2.63
2019-05-20T07:37:01.429Z,3.07
2019-05-20T07:40:51.711Z,2.63
2019-05-20T07:44:55.960Z,2.67
2019-05-20T07:49:03.260Z,3.63
2019-05-20T07:53:09.097Z,6.33
2019-05-20T07:57:16.680Z,3.43
2019-05-20T08:01:20.952Z,2.30
2019-05-20T08:05:25.205Z,3.07
2019-05-20T08:09:29.716Z,5.07
2019-05-20T08:13:33.951Z,3.30
2019-05-20T08:17:38.193Z,2.93
2019-05-20T08:21:42.385Z,5.47
2019-05-20T08:25:46.715Z,4.30
2019-05-20T08:29:50.942Z,4.67
2019-05-20T08:33:55.623Z,6.70
2019-05-20T08:38:00.117Z,4.50
2019-05-20T08:42:04.316Z,3.13
2019-05-20T08:46:08.657Z,3.30
2019-05-20T08:50:16.188Z,3.60
2019-05-20T08:54:19.039Z,2.87
2019-05-20T08:58:23.284Z,3.33
2019-05-20T09:02:27.565Z,3.60
2019-05-20T09:06:31.843Z,3.07
2019-05-20T09:10:39.421Z,2.63
2019-05-20T09:14:42.767Z,4.70
2019-05-20T09:18:46.990Z,4.07
2019-05-20T09:22:51.288Z,5.97
2019-05-20T09:26:55.680Z,3.30
2019-05-20T09:31:00.114Z,2.90
2019-05-20T09:35:05.762Z,2.70
2019-05-20T09:39:10.022Z,2.33
2019-05-20T09:43:14.217Z,2.65
2019-05-20T09:47:19.714Z,3.02
2019-05-20T09:51:24.002Z,5.40
2019-05-20T09:55:28.393Z,3.20
2019-05-20T09:59:42.790Z,2.17
2019-05-20T10:03:39.578Z,3.45
2019-05-20T10:07:43.883Z,2.43
2019-05-20T10:11:48.150Z,5.37
2019-05-20T10:15:52.684Z,2.40
2019-05-20T10:19:57.032Z,6.53
2019-05-20T10:24:01.503Z,2.37
2019-05-20T10:28:05.938Z,2.33
2019-05-20T10:32:10.145Z,2.98
2019-05-20T10:36:14.394Z,4.22
2019-05-20T10:40:19.271Z,2.05
2019-05-20T10:44:23.884Z,1.90
2019-05-20T10:48:28.189Z,3.47
2019-05-20T10:52:32.738Z,1.60
2019-05-20T10:56:37.009Z,2.33
2019-05-20T11:01:00.665Z,3.98
2019-05-20T11:04:47.746Z,1.70
2019-05-20T11:08:52.395Z,2.27
2019-05-20T11:12:56.672Z,2.67
2019-05-20T11:17:01.364Z,1.65
2019-05-20T11:21:05.652Z,1.72
2019-05-20T11:25:10.287Z,1.70
2019-05-20T11:29:15.009Z,3.67
2019-05-20T11:33:19.279Z,2.83
2019-05-20T11:37:23.587Z,2.10
2019-05-20T11:41:52.305Z,2.25
2019-05-20T11:45:34.389Z,2.98
2019-05-20T11:49:38.696Z,1.45
2019-05-20T11:53:43.029Z,2.17
2019-05-20T11:57:47.294Z,1.30
2019-05-20T12:01:51.511Z,1.62
2019-05-20T12:05:55.896Z,2.05
2019-05-20T12:10:00.283Z,1.30
2019-05-20T12:14:04.469Z,1.55
2019-05-20T12:18:08.722Z,1.32
2019-05-20T12:22:13.083Z,1.25
2019-05-20T12:26:17.346Z,1.62
2019-05-20T12:30:22.246Z,1.47
2019-05-20T12:34:26.565Z,2.02
2019-05-20T12:38:30.845Z,1.20
2019-05-20T12:42:35.076Z,1.55
2019-05-20T12:46:39.310Z,1.22
2019-05-20T12:50:43.545Z,1.85
2019-05-20T12:55:05.970Z,1.15
2019-05-20T12:58:54.974Z,1.10
2019-05-20T13:02:59.315Z,1.40
2019-05-20T13:07:03.844Z,1.27
2019-05-20T13:11:08.194Z,1.60
2019-05-20T13:15:12.965Z,1.25
2019-05-20T13:19:17.185Z,0.80
2019-05-20T13:23:21.727Z,0.80
2019-05-20T13:27:25.970Z,1.00
2019-05-20T13:31:30.443Z,2.80
2019-05-20T13:35:34.959Z,1.00
2019-05-20T13:39:41.101Z,1.25
2019-05-20T13:43:45.452Z,0.88
2019-05-20T13:47:49.995Z,1.00
2019-05-20T13:51:54.372Z,1.70
2019-05-20T13:55:59.047Z,0.95
2019-05-20T14:00:03.862Z,0.90
2019-05-20T14:04:08.104Z,0.93
2019-05-20T14:08:12.581Z,1.45
2019-05-20T14:12:17.048Z,0.85
2019-05-20T14:16:21.482Z,3.75
2019-05-20T14:20:25.870Z,1.00
2019-05-20T14:24:30.252Z,1.27
2019-05-20T14:28:34.627Z,0.95
2019-05-20T14:32:39.104Z,0.70
2019-05-20T14:36:43.490Z,1.10
2019-05-20T14:40:48.034Z,2.30
2019-05-20T14:44:52.475Z,0.78
2019-05-20T14:48:56.968Z,1.67
2019-05-20T14:53:01.191Z,1.05
2019-05-20T14:57:06.699Z,0.80
2019-05-20T15:01:11.022Z,4.70
2019-05-20T15:05:15.786Z,0.72
2019-05-20T15:09:20.100Z,1.02
2019-05-20T15:13:24.451Z,0.62
2019-05-20T15:17:28.746Z,0.80
2019-05-20T15:21:32.994Z,0.70
2019-05-20T15:25:37.369Z,1.05
2019-05-20T15:29:41.667Z,1.15
2019-05-20T15:33:46.080Z,1.27
2019-05-20T15:37:50.413Z,1.32
2019-05-20T15:41:54.762Z,1.57
2019-05-20T15:45:59.118Z,0.75
2019-05-20T15:50:24.986Z,0.70
2019-05-20T15:54:29.244Z,0.85
2019-05-20T15:58:33.763Z,1.45
2019-05-20T16:02:38.411Z,0.95
2019-05-20T16:06:42.732Z,0.60
2019-05-20T16:10:46.956Z,0.60
2019-05-20T16:14:51.746Z,1.55
2019-05-20T16:18:56.181Z,0.93
2019-05-20T16:23:00.477Z,0.98
2019-05-20T16:27:04.770Z,1.37
2019-05-20T16:31:09.118Z,1.45
2019-05-20T16:35:13.607Z,2.62
2019-05-20T16:39:17.845Z,1.67
2019-05-20T16:43:22.104Z,0.80
2019-05-20T16:47:26.402Z,1.07
2019-05-20T16:51:30.678Z,2.27
2019-05-20T16:55:34.949Z,0.70
2019-05-20T16:59:39.198Z,1.65
2019-05-20T17:03:43.486Z,1.02
2019-05-20T17:07:47.778Z,0.80
2019-05-20T17:11:52.084Z,0.70
2019-05-20T17:15:56.343Z,0.70
2019-05-20T17:20:00.636Z,0.70
2019-05-20T17:24:04.954Z,0.75
2019-05-20T17:28:09.233Z,0.60
2019-05-20T17:32:13.487Z,1.70
2019-05-20T17:36:17.896Z,1.10
2019-05-20T17:40:22.271Z,1.27
2019-05-20T17:44:26.515Z,1.75
2019-05-20T17:48:30.880Z,0.80
2019-05-20T17:52:35.094Z,1.30
2019-05-20T17:56:39.445Z,2.92
2019-05-20T18:00:43.800Z,2.80
2019-05-20T18:04:48.305Z,4.20
2019-05-20T18:08:54.630Z,0.95
2019-05-20T18:12:58.955Z,1.52
2019-05-20T18:17:03.317Z,1.75
2019-05-20T18:21:07.860Z,2.87
2019-05-20T18:25:12.287Z,2.65
2019-05-20T18:29:17.017Z,1.27
2019-05-20T18:33:21.605Z,1.80
2019-05-20T18:37:26.909Z,1.50
2019-05-20T18:41:31.370Z,1.65
2019-05-20T18:45:35.587Z,0.80
2019-05-20T18:49:41.317Z,1.10
2019-05-20T18:53:46.008Z,0.80
2019-05-20T18:57:50.385Z,1.50
2019-05-20T19:02:04.670Z,1.50
2019-05-20T19:06:01.000Z,1.15
2019-05-20T19:10:06.382Z,1.07
2019-05-20T19:14:10.675Z,1.30
2019-05-20T19:18:14.941Z,1.17
2019-05-20T19:22:19.278Z,1.60
2019-05-20T19:26:25.491Z,1.22
2019-05-20T19:30:30.005Z,1.87
2019-05-20T19:34:34.333Z,1.87
2019-05-20T19:38:38.599Z,2.50
2019-05-20T19:42:43.367Z,1.72
2019-05-20T19:46:47.724Z,1.70
2019-05-20T19:50:51.943Z,2.50
2019-05-20T19:54:56.405Z,1.70
2019-05-20T19:59:00.670Z,1.80
2019-05-20T20:03:04.926Z,1.90
2019-05-20T20:07:09.541Z,1.20
2019-05-20T20:11:13.821Z,1.10
2019-05-20T20:15:19.305Z,1.57
2019-05-20T20:19:23.562Z,2.10
2019-05-20T20:23:27.832Z,0.80
2019-05-20T20:27:32.126Z,1.20
2019-05-20T20:31:36.360Z,2.57
2019-05-20T20:35:40.619Z,1.27
2019-05-20T20:39:45.277Z,2.33
2019-05-20T20:43:49.557Z,1.10
2019-05-20T20:47:53.783Z,1.30
2019-05-20T20:51:58.032Z,2.40
2019-05-20T20:56:02.666Z,1.20
2019-05-20T21:00:08.182Z,1.07
2019-05-20T21:04:12.512Z,1.60
2019-05-20T21:08:17.236Z,1.77
2019-05-20T21:12:21.509Z,1.10
2019-05-20T21:16:25.738Z,1.27
2019-05-20T21:20:30.389Z,1.47
2019-05-20T21:24:34.701Z,1.10
2019-05-20T21:28:39.693Z,2.57
2019-05-20T21:32:43.973Z,1.23
2019-05-20T21:36:48.477Z,1.40
2019-05-20T21:40:52.803Z,1.47
2019-05-20T21:44:57.614Z,1.10
2019-05-20T21:49:01.921Z,2.20
2019-05-20T21:53:06.386Z,1.20
2019-05-20T21:57:10.879Z,2.40
2019-05-20T22:01:15.141Z,2.43
2019-05-20T22:05:19.664Z,1.53
2019-05-20T22:09:24.023Z,1.17
2019-05-20T22:13:28.314Z,1.33
2019-05-20T22:17:32.545Z,1.10
2019-05-20T22:21:43.125Z,1.37
2019-05-20T22:25:48.272Z,3.20
2019-05-20T22:29:52.508Z,2.70
2019-05-20T22:33:56.761Z,3.30
2019-05-20T22:38:00.987Z,2.57
2019-05-20T22:42:05.266Z,1.70
2019-05-20T22:46:09.528Z,2.60
2019-05-20T22:50:14.135Z,3.73
2019-05-20T22:54:18.380Z,2.67
2019-05-20T22:58:22.793Z,1.43
2019-05-20T23:02:27.040Z,2.00
2019-05-20T23:06:31.560Z,2.53
2019-05-20T23:10:36.536Z,2.33
2019-05-20T23:14:40.873Z,1.43
2019-05-20T23:18:45.128Z,2.93
2019-05-20T23:22:49.502Z,1.33
2019-05-20T23:26:53.708Z,1.90
2019-05-20T23:30:57.938Z,1.30
2019-05-20T23:35:02.666Z,1.37
2019-05-20T23:39:07.896Z,1.87
2019-05-20T23:43:12.200Z,1.70
2019-05-20T23:47:16.486Z,1.37
2019-05-20T23:51:21.163Z,1.17
2019-05-20T23:55:25.421Z,1.20
2019-05-20T23:59:30.063Z,1.50
